Terminal Aerodrome Forecast
Issued by NWS Midland/Odessa, TX

Home | Current Version | Previous Version | Text Only | Print | Product List | Glossary On
Versions: 1 2 3 4 5 6 7 8 9 10 11 12 13 14 15 16 17 18 19 20 21
000
FTUS44 KMAF 040000 RRA
TAFMAF
TAF
KMAF 040005Z 0400/0424 20006KT P6SM BKN150 OVC250
     FM040900 18007KT 5SM BR BKN015
     FM041300 04015G25KT P6SM OVC012
     FM041600 02018G25KT 4SM -RADZ BR OVC010
     FM042000 02018G25KT 3SM -RADZ BR OVC008
      TEMPO 0420/0424 1SM -FZRA BR OVC006=

USA.gov is the U.S. government's official web portal to all federal, state and local government web resources and services.